sensor_id;sensor_type;location;lat;lon;timestamp;temperature;humidity
22574;DHT22;11453;52.052;20.430;2022-07-23T00:00:54;21.80;97.50
22574;DHT22;11453;52.052;20.430;2022-07-23T00:03:20;21.80;97.60
22574;DHT22;11453;52.052;20.430;2022-07-23T00:05:46;21.80;97.70
22574;DHT22;11453;52.052;20.430;2022-07-23T00:08:11;21.80;97.80
22574;DHT22;11453;52.052;20.430;2022-07-23T00:10:37;21.70;97.80
22574;DHT22;11453;52.052;20.430;2022-07-23T00:13:03;21.70;98.00
22574;DHT22;11453;52.052;20.430;2022-07-23T00:15:29;21.70;98.10
22574;DHT22;11453;52.052;20.430;2022-07-23T00:17:55;21.60;98.20
22574;DHT22;11453;52.052;20.430;2022-07-23T00:20:21;21.60;98.40
22574;DHT22;11453;52.052;20.430;2022-07-23T00:22:48;21.60;98.50
22574;DHT22;11453;52.052;20.430;2022-07-23T00:25:14;21.50;98.60
22574;DHT22;11453;52.052;20.430;2022-07-23T00:27:39;21.50;98.80
22574;DHT22;11453;52.052;20.430;2022-07-23T00:30:06;21.50;98.90
22574;DHT22;11453;52.052;20.430;2022-07-23T00:32:31;21.50;99.00
22574;DHT22;11453;52.052;20.430;2022-07-23T00:34:57;21.40;99.10
22574;DHT22;11453;52.052;20.430;2022-07-23T00:37:23;21.40;99.10
22574;DHT22;11453;52.052;20.430;2022-07-23T00:39:48;21.40;99.20
22574;DHT22;11453;52.052;20.430;2022-07-23T00:42:14;21.40;99.20
22574;DHT22;11453;52.052;20.430;2022-07-23T00:44:40;21.40;99.20
22574;DHT22;11453;52.052;20.430;2022-07-23T00:47:05;21.40;99.30
22574;DHT22;11453;52.052;20.430;2022-07-23T00:49:31;21.40;99.40
22574;DHT22;11453;52.052;20.430;2022-07-23T00:52:01;21.40;99.50
22574;DHT22;11453;52.052;20.430;2022-07-23T00:54:27;21.30;99.50
22574;DHT22;11453;52.052;20.430;2022-07-23T00:56:53;21.30;99.60
22574;DHT22;11453;52.052;20.430;2022-07-23T00:59:20;21.30;99.70
22574;DHT22;11453;52.052;20.430;2022-07-23T01:01:45;21.30;99.70
22574;DHT22;11453;52.052;20.430;2022-07-23T01:04:14;21.30;99.80
22574;DHT22;11453;52.052;20.430;2022-07-23T01:06:41;21.30;99.90
22574;DHT22;11453;52.052;20.430;2022-07-23T01:09:08;21.30;99.90
22574;DHT22;11453;52.052;20.430;2022-07-23T01:11:35;21.30;99.90
22574;DHT22;11453;52.052;20.430;2022-07-23T01:14:17;21.30;99.90
22574;DHT22;11453;52.052;20.430;2022-07-23T01:16:45;21.30;99.80
22574;DHT22;11453;52.052;20.430;2022-07-23T01:19:11;21.20;99.80
22574;DHT22;11453;52.052;20.430;2022-07-23T01:21:42;21.20;99.80
22574;DHT22;11453;52.052;20.430;2022-07-23T01:24:09;21.20;99.80
22574;DHT22;11453;52.052;20.430;2022-07-23T01:26:35;21.20;99.90
22574;DHT22;11453;52.052;20.430;2022-07-23T01:29:02;21.20;99.90
22574;DHT22;11453;52.052;20.430;2022-07-23T01:31:28;21.10;99.90
22574;DHT22;11453;52.052;20.430;2022-07-23T01:33:54;21.10;99.90
22574;DHT22;11453;52.052;20.430;2022-07-23T01:36:19;21.10;99.90
22574;DHT22;11453;52.052;20.430;2022-07-23T01:38:45;21.10;99.90
22574;DHT22;11453;52.052;20.430;2022-07-23T01:41:11;21.10;99.90
22574;DHT22;11453;52.052;20.430;2022-07-23T01:43:36;21.10;99.90
22574;DHT22;11453;52.052;20.430;2022-07-23T01:46:02;21.10;99.90
22574;DHT22;11453;52.052;20.430;2022-07-23T01:48:28;21.00;99.90
22574;DHT22;11453;52.052;20.430;2022-07-23T01:50:53;21.00;99.90
22574;DHT22;11453;52.052;20.430;2022-07-23T01:53:19;20.90;99.90
22574;DHT22;11453;52.052;20.430;2022-07-23T01:55:45;20.90;99.90
22574;DHT22;11453;52.052;20.430;2022-07-23T01:58:11;20.90;99.90
22574;DHT22;11453;52.052;20.430;2022-07-23T02:00:36;20.90;99.90
22574;DHT22;11453;52.052;20.430;2022-07-23T02:03:02;20.80;99.90
22574;DHT22;11453;52.052;20.430;2022-07-23T02:05:28;20.80;99.90
22574;DHT22;11453;52.052;20.430;2022-07-23T02:07:56;20.70;99.90
22574;DHT22;11453;52.052;20.430;2022-07-23T02:10:22;20.70;99.90
22574;DHT22;11453;52.052;20.430;2022-07-23T02:12:48;20.70;99.90
22574;DHT22;11453;52.052;20.430;2022-07-23T02:15:13;20.70;99.90
22574;DHT22;11453;52.052;20.430;2022-07-23T02:17:39;20.70;99.90
22574;DHT22;11453;52.052;20.430;2022-07-23T02:20:06;20.60;99.90
22574;DHT22;11453;52.052;20.430;2022-07-23T02:22:32;20.60;99.90
22574;DHT22;11453;52.052;20.430;2022-07-23T02:24:57;20.60;99.90
22574;DHT22;11453;52.052;20.430;2022-07-23T02:27:23;20.60;99.90
22574;DHT22;11453;52.052;20.430;2022-07-23T02:29:49;20.60;99.90
22574;DHT22;11453;52.052;20.430;2022-07-23T02:32:16;20.50;99.90
22574;DHT22;11453;52.052;20.430;2022-07-23T02:34:41;20.50;99.90
22574;DHT22;11453;52.052;20.430;2022-07-23T02:37:07;20.50;99.90
22574;DHT22;11453;52.052;20.430;2022-07-23T02:39:37;20.50;99.90
22574;DHT22;11453;52.052;20.430;2022-07-23T02:42:02;20.50;99.90
22574;DHT22;11453;52.052;20.430;2022-07-23T02:44:28;20.40;99.90
22574;DHT22;11453;52.052;20.430;2022-07-23T02:46:54;20.40;99.90
22574;DHT22;11453;52.052;20.430;2022-07-23T02:49:19;20.30;99.90
22574;DHT22;11453;52.052;20.430;2022-07-23T02:51:45;20.30;99.90
22574;DHT22;11453;52.052;20.430;2022-07-23T02:54:11;20.30;99.90
22574;DHT22;11453;52.052;20.430;2022-07-23T02:56:36;20.30;99.90
22574;DHT22;11453;52.052;20.430;2022-07-23T02:59:02;20.30;99.90
22574;DHT22;11453;52.052;20.430;2022-07-23T03:01:28;20.20;99.90
22574;DHT22;11453;52.052;20.430;2022-07-23T03:03:53;20.20;99.90
22574;DHT22;11453;52.052;20.430;2022-07-23T03:06:19;20.20;99.90
22574;DHT22;11453;52.052;20.430;2022-07-23T03:08:45;20.20;99.90
22574;DHT22;11453;52.052;20.430;2022-07-23T03:11:11;20.10;99.90
22574;DHT22;11453;52.052;20.430;2022-07-23T03:13:40;20.20;99.90
22574;DHT22;11453;52.052;20.430;2022-07-23T03:16:06;20.20;99.90
22574;DHT22;11453;52.052;20.430;2022-07-23T03:18:32;20.20;99.90
22574;DHT22;11453;52.052;20.430;2022-07-23T03:20:59;20.20;99.90
22574;DHT22;11453;52.052;20.430;2022-07-23T03:23:25;20.20;99.90
22574;DHT22;11453;52.052;20.430;2022-07-23T03:25:51;20.20;99.90
22574;DHT22;11453;52.052;20.430;2022-07-23T03:28:18;20.10;99.90
22574;DHT22;11453;52.052;20.430;2022-07-23T03:30:45;20.10;99.90
22574;DHT22;11453;52.052;20.430;2022-07-23T03:33:15;20.20;99.90
22574;DHT22;11453;52.052;20.430;2022-07-23T03:35:45;20.20;99.90
22574;DHT22;11453;52.052;20.430;2022-07-23T03:38:12;20.20;99.90
22574;DHT22;11453;52.052;20.430;2022-07-23T03:40:38;20.20;99.90
22574;DHT22;11453;52.052;20.430;2022-07-23T03:43:03;20.20;99.90
22574;DHT22;11453;52.052;20.430;2022-07-23T03:45:29;20.20;99.90
22574;DHT22;11453;52.052;20.430;2022-07-23T03:47:55;20.20;99.90
22574;DHT22;11453;52.052;20.430;2022-07-23T03:50:20;20.20;99.90
22574;DHT22;11453;52.052;20.430;2022-07-23T03:52:46;20.20;99.90
22574;DHT22;11453;52.052;20.430;2022-07-23T03:55:12;20.30;99.90
22574;DHT22;11453;52.052;20.430;2022-07-23T03:57:37;20.30;99.90
22574;DHT22;11453;52.052;20.430;2022-07-23T04:00:04;20.30;99.90
22574;DHT22;11453;52.052;20.430;2022-07-23T04:02:31;20.40;99.90
22574;DHT22;11453;52.052;20.430;2022-07-23T04:04:57;20.40;99.90
22574;DHT22;11453;52.052;20.430;2022-07-23T04:07:22;20.40;99.90
22574;DHT22;11453;52.052;20.430;2022-07-23T04:09:48;20.50;99.90
22574;DHT22;11453;52.052;20.430;2022-07-23T04:12:14;20.50;99.90
22574;DHT22;11453;52.052;20.430;2022-07-23T04:14:40;20.60;99.90
22574;DHT22;11453;52.052;20.430;2022-07-23T04:17:05;20.60;99.90
22574;DHT22;11453;52.052;20.430;2022-07-23T04:19:31;20.70;99.90
22574;DHT22;11453;52.052;20.430;2022-07-23T04:21:57;20.70;99.90
22574;DHT22;11453;52.052;20.430;2022-07-23T04:24:23;20.80;99.90
22574;DHT22;11453;52.052;20.430;2022-07-23T04:26:49;20.80;99.90
22574;DHT22;11453;52.052;20.430;2022-07-23T04:29:14;20.80;99.90
22574;DHT22;11453;52.052;20.430;2022-07-23T04:31:40;20.90;99.90
22574;DHT22;11453;52.052;20.430;2022-07-23T04:34:06;20.90;99.90
22574;DHT22;11453;52.052;20.430;2022-07-23T04:36:31;20.90;99.90
22574;DHT22;11453;52.052;20.430;2022-07-23T04:38:57;21.00;99.90
22574;DHT22;11453;52.052;20.430;2022-07-23T04:41:23;21.00;99.90
22574;DHT22;11453;52.052;20.430;2022-07-23T04:43:48;21.00;99.90
22574;DHT22;11453;52.052;20.430;2022-07-23T04:46:14;21.10;99.90
22574;DHT22;11453;52.052;20.430;2022-07-23T04:48:40;21.10;99.90
22574;DHT22;11453;52.052;20.430;2022-07-23T04:51:05;21.20;99.90
22574;DHT22;11453;52.052;20.430;2022-07-23T04:53:31;21.30;99.90
22574;DHT22;11453;52.052;20.430;2022-07-23T04:55:57;21.30;99.90
22574;DHT22;11453;52.052;20.430;2022-07-23T04:58:23;21.40;99.90
22574;DHT22;11453;52.052;20.430;2022-07-23T05:00:48;21.40;99.90
22574;DHT22;11453;52.052;20.430;2022-07-23T05:03:15;21.50;99.90
22574;DHT22;11453;52.052;20.430;2022-07-23T05:05:40;21.60;99.90
22574;DHT22;11453;52.052;20.430;2022-07-23T05:08:06;21.60;99.90
22574;DHT22;11453;52.052;20.430;2022-07-23T05:10:32;21.70;99.90
22574;DHT22;11453;52.052;20.430;2022-07-23T05:12:58;21.70;99.90
22574;DHT22;11453;52.052;20.430;2022-07-23T05:15:24;21.80;99.90
22574;DHT22;11453;52.052;20.430;2022-07-23T05:17:49;21.80;99.90
22574;DHT22;11453;52.052;20.430;2022-07-23T05:20:15;21.80;99.90
22574;DHT22;11453;52.052;20.430;2022-07-23T05:22:41;21.90;99.90
22574;DHT22;11453;52.052;20.430;2022-07-23T05:25:07;22.00;99.90
22574;DHT22;11453;52.052;20.430;2022-07-23T05:27:33;22.00;99.90
22574;DHT22;11453;52.052;20.430;2022-07-23T05:29:59;22.10;99.90
22574;DHT22;11453;52.052;20.430;2022-07-23T05:32:25;22.10;99.80
22574;DHT22;11453;52.052;20.430;2022-07-23T05:34:50;22.20;99.80
22574;DHT22;11453;52.052;20.430;2022-07-23T05:37:16;22.20;99.70
22574;DHT22;11453;52.052;20.430;2022-07-23T05:39:42;22.30;99.60
22574;DHT22;11453;52.052;20.430;2022-07-23T05:42:08;22.30;99.50
22574;DHT22;11453;52.052;20.430;2022-07-23T05:44:34;22.40;99.40
22574;DHT22;11453;52.052;20.430;2022-07-23T05:46:59;22.50;99.30
22574;DHT22;11453;52.052;20.430;2022-07-23T05:49:25;22.50;99.20
22574;DHT22;11453;52.052;20.430;2022-07-23T05:51:51;22.60;99.00
22574;DHT22;11453;52.052;20.430;2022-07-23T05:54:17;22.60;98.90
22574;DHT22;11453;52.052;20.430;2022-07-23T05:56:43;22.70;98.80
22574;DHT22;11453;52.052;20.430;2022-07-23T05:59:08;22.70;98.60
22574;DHT22;11453;52.052;20.430;2022-07-23T06:01:34;22.80;98.50
22574;DHT22;11453;52.052;20.430;2022-07-23T06:04:00;22.90;98.50
22574;DHT22;11453;52.052;20.430;2022-07-23T06:06:26;22.90;98.30
22574;DHT22;11453;52.052;20.430;2022-07-23T06:08:51;23.00;98.20
22574;DHT22;11453;52.052;20.430;2022-07-23T06:11:17;23.00;98.10
22574;DHT22;11453;52.052;20.430;2022-07-23T06:13:42;23.10;98.00
22574;DHT22;11453;52.052;20.430;2022-07-23T06:16:08;23.10;97.90
22574;DHT22;11453;52.052;20.430;2022-07-23T06:18:34;23.20;97.80
22574;DHT22;11453;52.052;20.430;2022-07-23T06:21:00;23.30;97.70
22574;DHT22;11453;52.052;20.430;2022-07-23T06:23:25;23.30;97.50
22574;DHT22;11453;52.052;20.430;2022-07-23T06:25:51;23.40;97.30
22574;DHT22;11453;52.052;20.430;2022-07-23T06:28:17;23.40;97.20
22574;DHT22;11453;52.052;20.430;2022-07-23T06:30:43;23.50;97.00
22574;DHT22;11453;52.052;20.430;2022-07-23T06:33:08;23.60;96.80
22574;DHT22;11453;52.052;20.430;2022-07-23T06:35:35;23.60;96.70
22574;DHT22;11453;52.052;20.430;2022-07-23T06:38:00;23.70;96.50
22574;DHT22;11453;52.052;20.430;2022-07-23T06:40:26;23.70;96.20
22574;DHT22;11453;52.052;20.430;2022-07-23T06:42:52;23.80;95.90
22574;DHT22;11453;52.052;20.430;2022-07-23T06:45:17;23.80;95.60
22574;DHT22;11453;52.052;20.430;2022-07-23T06:47:43;23.90;95.50
22574;DHT22;11453;52.052;20.430;2022-07-23T06:50:09;24.00;95.50
22574;DHT22;11453;52.052;20.430;2022-07-23T06:52:35;24.00;95.40
22574;DHT22;11453;52.052;20.430;2022-07-23T06:55:01;24.10;95.10
22574;DHT22;11453;52.052;20.430;2022-07-23T06:57:26;24.20;95.00
22574;DHT22;11453;52.052;20.430;2022-07-23T06:59:52;24.30;94.70
22574;DHT22;11453;52.052;20.430;2022-07-23T07:02:18;24.30;94.40
22574;DHT22;11453;52.052;20.430;2022-07-23T07:04:44;24.40;94.10
22574;DHT22;11453;52.052;20.430;2022-07-23T07:07:09;24.50;93.90
22574;DHT22;11453;52.052;20.430;2022-07-23T07:09:35;24.50;93.70
22574;DHT22;11453;52.052;20.430;2022-07-23T07:12:00;24.50;93.70
22574;DHT22;11453;52.052;20.430;2022-07-23T07:14:27;24.60;93.40
22574;DHT22;11453;52.052;20.430;2022-07-23T07:16:52;24.60;93.20
22574;DHT22;11453;52.052;20.430;2022-07-23T07:19:18;24.60;93.00
22574;DHT22;11453;52.052;20.430;2022-07-23T07:21:44;24.70;92.90
22574;DHT22;11453;52.052;20.430;2022-07-23T07:24:09;24.80;92.70
22574;DHT22;11453;52.052;20.430;2022-07-23T07:26:35;24.80;92.50
22574;DHT22;11453;52.052;20.430;2022-07-23T07:29:01;24.90;92.50
22574;DHT22;11453;52.052;20.430;2022-07-23T07:31:26;24.90;92.00
22574;DHT22;11453;52.052;20.430;2022-07-23T07:33:52;24.90;91.80
22574;DHT22;11453;52.052;20.430;2022-07-23T07:36:18;25.00;91.40
22574;DHT22;11453;52.052;20.430;2022-07-23T07:38:44;25.10;91.10
22574;DHT22;11453;52.052;20.430;2022-07-23T07:41:09;25.10;91.10
22574;DHT22;11453;52.052;20.430;2022-07-23T07:43:36;25.20;91.10
22574;DHT22;11453;52.052;20.430;2022-07-23T07:46:03;25.20;91.00
22574;DHT22;11453;52.052;20.430;2022-07-23T07:48:28;25.30;90.90
22574;DHT22;11453;52.052;20.430;2022-07-23T07:50:54;25.30;90.80
22574;DHT22;11453;52.052;20.430;2022-07-23T07:53:20;25.40;90.70
22574;DHT22;11453;52.052;20.430;2022-07-23T07:55:45;25.40;90.70
22574;DHT22;11453;52.052;20.430;2022-07-23T07:58:11;25.50;90.70
22574;DHT22;11453;52.052;20.430;2022-07-23T08:00:37;25.60;90.70
22574;DHT22;11453;52.052;20.430;2022-07-23T08:03:03;25.70;90.70
22574;DHT22;11453;52.052;20.430;2022-07-23T08:05:30;25.80;90.50
22574;DHT22;11453;52.052;20.430;2022-07-23T08:07:57;25.80;90.30
22574;DHT22;11453;52.052;20.430;2022-07-23T08:10:24;25.90;90.20
22574;DHT22;11453;52.052;20.430;2022-07-23T08:12:52;25.90;90.00
22574;DHT22;11453;52.052;20.430;2022-07-23T08:15:20;26.00;90.00
22574;DHT22;11453;52.052;20.430;2022-07-23T08:17:47;26.00;89.80
22574;DHT22;11453;52.052;20.430;2022-07-23T08:20:15;26.10;89.50
22574;DHT22;11453;52.052;20.430;2022-07-23T08:25:30;26.30;87.60
22574;DHT22;11453;52.052;20.430;2022-07-23T08:27:57;26.30;87.10
22574;DHT22;11453;52.052;20.430;2022-07-23T08:30:23;26.30;86.80
22574;DHT22;11453;52.052;20.430;2022-07-23T08:35:16;26.40;86.70
22574;DHT22;11453;52.052;20.430;2022-07-23T08:37:41;26.40;86.40
22574;DHT22;11453;52.052;20.430;2022-07-23T08:40:07;26.50;86.00
22574;DHT22;11453;52.052;20.430;2022-07-23T08:42:33;26.50;85.30
22574;DHT22;11453;52.052;20.430;2022-07-23T08:45:03;26.60;84.70
22574;DHT22;11453;52.052;20.430;2022-07-23T08:47:29;26.70;84.80
22574;DHT22;11453;52.052;20.430;2022-07-23T08:49:58;26.80;84.60
22574;DHT22;11453;52.052;20.430;2022-07-23T08:52:25;26.90;84.20
22574;DHT22;11453;52.052;20.430;2022-07-23T08:54:51;27.00;83.20
22574;DHT22;11453;52.052;20.430;2022-07-23T08:57:18;27.00;81.80
22574;DHT22;11453;52.052;20.430;2022-07-23T08:59:44;27.10;81.20
22574;DHT22;11453;52.052;20.430;2022-07-23T09:02:09;27.10;81.50
22574;DHT22;11453;52.052;20.430;2022-07-23T09:04:35;27.10;81.40
22574;DHT22;11453;52.052;20.430;2022-07-23T09:07:01;27.20;81.00
22574;DHT22;11453;52.052;20.430;2022-07-23T09:09:27;27.20;80.60
22574;DHT22;11453;52.052;20.430;2022-07-23T09:12:09;27.20;79.60
22574;DHT22;11453;52.052;20.430;2022-07-23T09:14:41;27.20;79.90
22574;DHT22;11453;52.052;20.430;2022-07-23T09:17:15;27.20;79.40
22574;DHT22;11453;52.052;20.430;2022-07-23T09:19:41;27.20;78.90
22574;DHT22;11453;52.052;20.430;2022-07-23T09:25:05;27.30;77.70
22574;DHT22;11453;52.052;20.430;2022-07-23T09:30:13;27.50;75.40
22574;DHT22;11453;52.052;20.430;2022-07-23T09:32:42;27.60;76.20
22574;DHT22;11453;52.052;20.430;2022-07-23T09:35:08;27.60;76.10
22574;DHT22;11453;52.052;20.430;2022-07-23T09:37:34;27.70;76.30
22574;DHT22;11453;52.052;20.430;2022-07-23T09:40:08;27.80;75.60
22574;DHT22;11453;52.052;20.430;2022-07-23T09:42:34;27.90;74.90
22574;DHT22;11453;52.052;20.430;2022-07-23T09:45:01;28.00;74.60
22574;DHT22;11453;52.052;20.430;2022-07-23T09:47:30;28.20;73.60
22574;DHT22;11453;52.052;20.430;2022-07-23T09:52:28;28.50;73.90
22574;DHT22;11453;52.052;20.430;2022-07-23T09:54:59;28.60;73.00
22574;DHT22;11453;52.052;20.430;2022-07-23T09:57:26;28.60;70.10
22574;DHT22;11453;52.052;20.430;2022-07-23T09:59:52;28.70;69.40
22574;DHT22;11453;52.052;20.430;2022-07-23T10:02:18;28.80;67.50
22574;DHT22;11453;52.052;20.430;2022-07-23T10:04:45;28.80;67.10
22574;DHT22;11453;52.052;20.430;2022-07-23T10:07:11;29.00;66.80
22574;DHT22;11453;52.052;20.430;2022-07-23T10:09:39;29.10;66.40
22574;DHT22;11453;52.052;20.430;2022-07-23T10:12:13;29.20;66.10
22574;DHT22;11453;52.052;20.430;2022-07-23T10:14:39;29.30;65.10
22574;DHT22;11453;52.052;20.430;2022-07-23T10:17:06;29.40;65.70
22574;DHT22;11453;52.052;20.430;2022-07-23T10:19:32;29.50;65.80
22574;DHT22;11453;52.052;20.430;2022-07-23T10:22:25;29.70;65.60
22574;DHT22;11453;52.052;20.430;2022-07-23T10:30:39;29.90;65.60
22574;DHT22;11453;52.052;20.430;2022-07-23T10:33:30;29.90;66.10
22574;DHT22;11453;52.052;20.430;2022-07-23T10:39:05;29.70;65.40
22574;DHT22;11453;52.052;20.430;2022-07-23T10:41:35;29.70;66.10
22574;DHT22;11453;52.052;20.430;2022-07-23T10:44:11;29.70;66.90
22574;DHT22;11453;52.052;20.430;2022-07-23T10:47:03;29.70;66.70
22574;DHT22;11453;52.052;20.430;2022-07-23T10:49:33;29.90;66.40
22574;DHT22;11453;52.052;20.430;2022-07-23T10:57:17;30.30;65.60
22574;DHT22;11453;52.052;20.430;2022-07-23T11:02:41;30.40;63.10
22574;DHT22;11453;52.052;20.430;2022-07-23T11:05:11;30.50;63.30
22574;DHT22;11453;52.052;20.430;2022-07-23T11:16:04;31.20;61.70
22574;DHT22;11453;52.052;20.430;2022-07-23T11:21:41;31.50;61.00
22574;DHT22;11453;52.052;20.430;2022-07-23T11:24:15;31.50;58.60
22574;DHT22;11453;52.052;20.430;2022-07-23T11:26:48;31.60;58.60
22574;DHT22;11453;52.052;20.430;2022-07-23T11:31:58;32.00;59.60
22574;DHT22;11453;52.052;20.430;2022-07-23T11:36:57;32.40;59.10
22574;DHT22;11453;52.052;20.430;2022-07-23T11:39:25;32.50;58.80
22574;DHT22;11453;52.052;20.430;2022-07-23T11:41:52;32.70;58.30
22574;DHT22;11453;52.052;20.430;2022-07-23T11:47:07;33.30;56.80
22574;DHT22;11453;52.052;20.430;2022-07-23T11:49:33;33.40;55.80
22574;DHT22;11453;52.052;20.430;2022-07-23T11:52:25;33.60;55.40
22574;DHT22;11453;52.052;20.430;2022-07-23T11:54:55;33.70;55.30
22574;DHT22;11453;52.052;20.430;2022-07-23T11:57:26;33.70;54.70
22574;DHT22;11453;52.052;20.430;2022-07-23T11:59:57;33.70;54.70
22574;DHT22;11453;52.052;20.430;2022-07-23T12:02:23;33.70;55.00
22574;DHT22;11453;52.052;20.430;2022-07-23T12:04:51;33.80;55.10
22574;DHT22;11453;52.052;20.430;2022-07-23T12:10:33;34.40;54.10
22574;DHT22;11453;52.052;20.430;2022-07-23T12:12:53;34.60;53.80
22574;DHT22;11453;52.052;20.430;2022-07-23T12:15:26;35.00;53.40
22574;DHT22;11453;52.052;20.430;2022-07-23T12:17:53;35.20;53.00
22574;DHT22;11453;52.052;20.430;2022-07-23T12:20:28;35.30;52.60
22574;DHT22;11453;52.052;20.430;2022-07-23T12:22:58;35.50;52.40
22574;DHT22;11453;52.052;20.430;2022-07-23T12:25:30;35.70;52.10
22574;DHT22;11453;52.052;20.430;2022-07-23T12:28:15;36.00;51.20
22574;DHT22;11453;52.052;20.430;2022-07-23T12:33:15;36.10;50.10
22574;DHT22;11453;52.052;20.430;2022-07-23T12:35:47;35.90;50.30
22574;DHT22;11453;52.052;20.430;2022-07-23T12:38:16;35.60;50.60
22574;DHT22;11453;52.052;20.430;2022-07-23T12:40:43;35.30;51.20
22574;DHT22;11453;52.052;20.430;2022-07-23T12:43:11;35.10;51.70
22574;DHT22;11453;52.052;20.430;2022-07-23T12:48:36;35.30;52.70
22574;DHT22;11453;52.052;20.430;2022-07-23T12:51:03;35.60;51.00
22574;DHT22;11453;52.052;20.430;2022-07-23T12:56:08;36.00;50.50
22574;DHT22;11453;52.052;20.430;2022-07-23T13:06:33;36.00;50.60
22574;DHT22;11453;52.052;20.430;2022-07-23T13:09:00;35.90;50.60
22574;DHT22;11453;52.052;20.430;2022-07-23T13:11:26;35.60;50.30
22574;DHT22;11453;52.052;20.430;2022-07-23T13:13:52;35.30;51.00
22574;DHT22;11453;52.052;20.430;2022-07-23T13:16:17;35.00;50.60
22574;DHT22;11453;52.052;20.430;2022-07-23T13:18:43;34.70;51.60
22574;DHT22;11453;52.052;20.430;2022-07-23T13:21:09;34.30;51.20
22574;DHT22;11453;52.052;20.430;2022-07-23T13:23:35;34.00;51.00
22574;DHT22;11453;52.052;20.430;2022-07-23T13:26:01;33.70;52.80
22574;DHT22;11453;52.052;20.430;2022-07-23T13:28:27;33.40;53.70
22574;DHT22;11453;52.052;20.430;2022-07-23T13:30:52;33.10;54.30
22574;DHT22;11453;52.052;20.430;2022-07-23T13:33:23;32.80;55.50
22574;DHT22;11453;52.052;20.430;2022-07-23T13:35:51;32.50;56.00
22574;DHT22;11453;52.052;20.430;2022-07-23T13:38:19;32.20;57.30
22574;DHT22;11453;52.052;20.430;2022-07-23T13:40:47;32.00;58.70
22574;DHT22;11453;52.052;20.430;2022-07-23T13:43:16;31.70;58.20
22574;DHT22;11453;52.052;20.430;2022-07-23T13:45:42;31.50;58.10
22574;DHT22;11453;52.052;20.430;2022-07-23T13:48:08;31.30;58.30
22574;DHT22;11453;52.052;20.430;2022-07-23T13:50:35;31.10;58.60
22574;DHT22;11453;52.052;20.430;2022-07-23T13:53:05;31.00;58.70
22574;DHT22;11453;52.052;20.430;2022-07-23T13:55:32;30.80;58.40
22574;DHT22;11453;52.052;20.430;2022-07-23T13:57:59;30.70;57.60
22574;DHT22;11453;52.052;20.430;2022-07-23T14:00:26;30.50;58.40
22574;DHT22;11453;52.052;20.430;2022-07-23T14:02:52;30.20;60.60
22574;DHT22;11453;52.052;20.430;2022-07-23T14:05:17;29.70;63.70
22574;DHT22;11453;52.052;20.430;2022-07-23T14:07:43;29.10;65.90
22574;DHT22;11453;52.052;20.430;2022-07-23T14:10:10;28.50;68.50
22574;DHT22;11453;52.052;20.430;2022-07-23T14:12:36;27.90;70.80
22574;DHT22;11453;52.052;20.430;2022-07-23T14:15:04;27.40;73.30
22574;DHT22;11453;52.052;20.430;2022-07-23T14:17:31;27.00;74.90
22574;DHT22;11453;52.052;20.430;2022-07-23T14:19:58;26.60;76.30
22574;DHT22;11453;52.052;20.430;2022-07-23T14:22:24;26.30;77.60
22574;DHT22;11453;52.052;20.430;2022-07-23T14:24:50;26.00;78.60
22574;DHT22;11453;52.052;20.430;2022-07-23T14:27:16;25.80;79.60
22574;DHT22;11453;52.052;20.430;2022-07-23T14:29:42;25.60;80.20
22574;DHT22;11453;52.052;20.430;2022-07-23T14:32:08;25.40;81.50
22574;DHT22;11453;52.052;20.430;2022-07-23T14:34:35;25.20;83.00
22574;DHT22;11453;52.052;20.430;2022-07-23T14:37:01;25.00;84.90
22574;DHT22;11453;52.052;20.430;2022-07-23T14:39:27;24.80;86.70
22574;DHT22;11453;52.052;20.430;2022-07-23T14:41:52;24.60;88.70
22574;DHT22;11453;52.052;20.430;2022-07-23T14:44:18;24.50;90.30
22574;DHT22;11453;52.052;20.430;2022-07-23T14:46:44;24.30;91.20
22574;DHT22;11453;52.052;20.430;2022-07-23T14:49:09;24.30;92.00
22574;DHT22;11453;52.052;20.430;2022-07-23T14:51:35;24.10;93.10
22574;DHT22;11453;52.052;20.430;2022-07-23T14:54:03;24.00;94.00
22574;DHT22;11453;52.052;20.430;2022-07-23T14:56:29;23.90;94.90
22574;DHT22;11453;52.052;20.430;2022-07-23T14:58:54;23.80;95.90
22574;DHT22;11453;52.052;20.430;2022-07-23T15:01:21;23.80;96.70
22574;DHT22;11453;52.052;20.430;2022-07-23T15:03:48;23.70;97.30
22574;DHT22;11453;52.052;20.430;2022-07-23T15:06:13;23.70;97.80
22574;DHT22;11453;52.052;20.430;2022-07-23T15:08:40;23.60;98.50
22574;DHT22;11453;52.052;20.430;2022-07-23T15:11:06;23.50;98.90
22574;DHT22;11453;52.052;20.430;2022-07-23T15:13:35;23.50;99.30
22574;DHT22;11453;52.052;20.430;2022-07-23T15:16:03;23.50;99.90
22574;DHT22;11453;52.052;20.430;2022-07-23T15:18:29;23.40;99.90
22574;DHT22;11453;52.052;20.430;2022-07-23T15:20:55;23.40;99.90
22574;DHT22;11453;52.052;20.430;2022-07-23T15:23:20;23.30;99.90
22574;DHT22;11453;52.052;20.430;2022-07-23T15:25:46;23.20;99.90
22574;DHT22;11453;52.052;20.430;2022-07-23T15:28:12;23.30;99.90
22574;DHT22;11453;52.052;20.430;2022-07-23T15:30:37;23.20;99.90
22574;DHT22;11453;52.052;20.430;2022-07-23T15:33:04;23.30;99.90
22574;DHT22;11453;52.052;20.430;2022-07-23T15:35:31;23.30;99.90
22574;DHT22;11453;52.052;20.430;2022-07-23T15:37:57;23.30;99.90
22574;DHT22;11453;52.052;20.430;2022-07-23T15:40:22;23.30;99.90
22574;DHT22;11453;52.052;20.430;2022-07-23T15:42:48;23.30;99.90
22574;DHT22;11453;52.052;20.430;2022-07-23T15:45:14;23.30;99.90
22574;DHT22;11453;52.052;20.430;2022-07-23T15:47:41;23.30;99.90
22574;DHT22;11453;52.052;20.430;2022-07-23T15:50:07;23.30;99.90
22574;DHT22;11453;52.052;20.430;2022-07-23T15:52:35;23.30;99.90
22574;DHT22;11453;52.052;20.430;2022-07-23T15:55:01;23.40;99.90
22574;DHT22;11453;52.052;20.430;2022-07-23T15:57:26;23.40;99.90
22574;DHT22;11453;52.052;20.430;2022-07-23T15:59:52;23.50;99.90
22574;DHT22;11453;52.052;20.430;2022-07-23T16:02:18;23.40;99.90
22574;DHT22;11453;52.052;20.430;2022-07-23T16:04:43;23.40;99.90
22574;DHT22;11453;52.052;20.430;2022-07-23T16:07:09;23.40;99.90
22574;DHT22;11453;52.052;20.430;2022-07-23T16:09:35;23.40;99.90
22574;DHT22;11453;52.052;20.430;2022-07-23T16:12:00;23.40;99.90
22574;DHT22;11453;52.052;20.430;2022-07-23T16:14:26;23.40;99.90
22574;DHT22;11453;52.052;20.430;2022-07-23T16:16:52;23.50;99.90
22574;DHT22;11453;52.052;20.430;2022-07-23T16:19:18;23.50;99.90
22574;DHT22;11453;52.052;20.430;2022-07-23T16:21:43;23.60;99.90